createdAt,value
2022-09-13T00:00:23.939Z,4.30
2022-09-13T00:03:27.699Z,4.57
2022-09-13T00:06:32.266Z,4.00
2022-09-13T00:09:35.506Z,4.60
2022-09-13T00:12:38.699Z,4.30
2022-09-13T00:15:45.195Z,4.27
2022-09-13T00:18:49.110Z,4.20
2022-09-13T00:21:53.862Z,4.47
2022-09-13T00:24:57.198Z,4.10
2022-09-13T00:28:00.406Z,4.77
2022-09-13T00:31:05.937Z,4.30
2022-09-13T00:34:09.182Z,4.00
2022-09-13T00:37:13.794Z,4.40
2022-09-13T00:40:17.293Z,4.27
2022-09-13T00:43:22.754Z,4.43
2022-09-13T00:46:33.816Z,3.77
2022-09-13T00:49:40.006Z,4.13
2022-09-13T00:52:46.902Z,3.70
2022-09-13T00:55:55.185Z,4.00
2022-09-13T00:59:02.533Z,3.87
2022-09-13T01:02:06.285Z,3.70
2022-09-13T01:05:10.791Z,3.83
2022-09-13T01:08:23.187Z,3.80
2022-09-13T01:11:33.061Z,3.57
2022-09-13T01:14:37.207Z,3.70
2022-09-13T01:17:41.157Z,3.40
2022-09-13T01:21:13.768Z,3.50
2022-09-13T01:24:50.503Z,3.37
2022-09-13T01:28:11.790Z,3.33
2022-09-13T01:31:25.483Z,3.70
2022-09-13T01:34:40.553Z,3.23
2022-09-13T01:37:53.164Z,3.63
2022-09-13T01:41:07.991Z,3.77
2022-09-13T01:44:21.722Z,3.83
2022-09-13T01:47:32.100Z,4.03
2022-09-13T01:50:41.229Z,3.20
2022-09-13T01:53:53.892Z,3.83
2022-09-13T01:57:06.040Z,3.30
2022-09-13T02:00:13.142Z,3.50
2022-09-13T02:03:21.892Z,3.57
2022-09-13T02:06:29.307Z,3.20
2022-09-13T02:09:36.399Z,3.47
2022-09-13T02:12:44.364Z,3.73
2022-09-13T02:15:50.319Z,3.87
2022-09-13T02:19:00.175Z,3.37
2022-09-13T02:22:07.469Z,3.33
2022-09-13T02:25:15.421Z,3.73
2022-09-13T02:28:24.202Z,3.43
2022-09-13T02:31:32.075Z,3.57
2022-09-13T02:34:41.785Z,3.30
2022-09-13T02:37:49.926Z,3.80
2022-09-13T02:40:58.836Z,3.67
2022-09-13T02:44:08.983Z,3.87
2022-09-13T02:47:18.876Z,3.60
2022-09-13T02:50:48.268Z,3.80
2022-09-13T02:53:56.826Z,3.10
2022-09-13T02:57:03.645Z,3.83
2022-09-13T03:00:08.353Z,3.70
2022-09-13T03:03:13.830Z,3.80
2022-09-13T03:06:25.186Z,3.30
2022-09-13T03:09:29.198Z,3.50
2022-09-13T03:12:58.716Z,3.90
2022-09-13T03:16:10.262Z,3.57
2022-09-13T03:19:29.409Z,4.17
2022-09-13T03:22:50.545Z,3.60
2022-09-13T03:26:22.216Z,3.97
2022-09-13T03:29:32.090Z,3.90
2022-09-13T03:32:43.550Z,3.87
2022-09-13T03:35:54.785Z,4.53
2022-09-13T03:39:05.983Z,4.00
2022-09-13T03:42:17.334Z,3.87
2022-09-13T03:45:25.107Z,3.70
2022-09-13T03:48:29.434Z,3.80
2022-09-13T03:51:33.869Z,3.90
2022-09-13T03:54:39.580Z,4.67
2022-09-13T03:57:42.735Z,3.97
2022-09-13T04:00:46.635Z,3.90
2022-09-13T04:03:54.539Z,3.67
2022-09-13T04:07:01.967Z,4.23
2022-09-13T04:10:10.704Z,4.47
2022-09-13T04:13:17.229Z,3.93
2022-09-13T04:16:20.488Z,3.70
2022-09-13T04:19:24.333Z,4.23
2022-09-13T04:22:27.493Z,3.80
2022-09-13T04:25:32.213Z,3.97
2022-09-13T04:31:39.007Z,4.17
2022-09-13T04:34:42.274Z,3.83
2022-09-13T04:37:45.543Z,3.67
2022-09-13T04:40:55.558Z,4.37
2022-09-13T04:43:58.777Z,4.50
2022-09-13T04:47:02.132Z,3.90
2022-09-13T04:50:05.778Z,4.80
2022-09-13T04:53:09.132Z,3.93
2022-09-13T04:56:15.602Z,4.43
2022-09-13T04:59:18.875Z,4.20
2022-09-13T05:02:22.246Z,4.07
2022-09-13T05:05:28.860Z,4.20
2022-09-13T05:08:32.364Z,4.10
2022-09-13T05:11:36.886Z,4.53
2022-09-13T05:14:40.218Z,4.20
2022-09-13T05:17:43.404Z,4.70
2022-09-13T05:20:46.673Z,4.87
2022-09-13T05:23:50.768Z,4.60
2022-09-13T05:26:55.374Z,4.67
2022-09-13T05:29:58.560Z,4.70
2022-09-13T05:33:01.823Z,4.90
2022-09-13T05:36:05.515Z,6.40
2022-09-13T05:39:31.424Z,5.37
2022-09-13T05:42:38.066Z,5.07
2022-09-13T05:45:41.496Z,4.40
2022-09-13T05:48:46.367Z,4.43
2022-09-13T05:51:49.895Z,4.37
2022-09-13T05:54:54.343Z,4.40
2022-09-13T05:57:59.001Z,4.53
2022-09-13T06:01:02.231Z,4.57
2022-09-13T06:04:05.411Z,4.70
2022-09-13T06:07:08.626Z,4.40
2022-09-13T06:10:12.560Z,5.55
2022-09-13T06:13:17.481Z,4.90
2022-09-13T06:16:20.785Z,4.25
2022-09-13T06:19:24.240Z,4.57
2022-09-13T06:22:33.167Z,4.28
2022-09-13T06:25:36.418Z,5.82
2022-09-13T06:28:41.093Z,3.88
2022-09-13T06:31:45.473Z,4.03
2022-09-13T06:34:48.728Z,4.45
2022-09-13T06:37:52.342Z,3.60
2022-09-13T06:41:01.579Z,4.07
2022-09-13T06:44:06.709Z,4.18
2022-09-13T06:47:09.955Z,4.20
2022-09-13T06:50:13.904Z,3.65
2022-09-13T06:53:17.125Z,3.40
2022-09-13T06:56:22.224Z,3.90
2022-09-13T06:59:26.850Z,2.72
2022-09-13T07:02:30.025Z,3.25
2022-09-13T07:05:33.227Z,3.47
2022-09-13T07:08:36.458Z,3.55
2022-09-13T07:11:42.389Z,3.40
2022-09-13T07:14:46.984Z,3.13
2022-09-13T07:17:56.445Z,3.17
2022-09-13T07:21:04.643Z,2.78
2022-09-13T07:24:08.252Z,2.90
2022-09-13T07:27:11.444Z,2.55
2022-09-13T07:30:16.365Z,3.20
2022-09-13T07:33:19.566Z,3.20
2022-09-13T07:36:24.086Z,2.80
2022-09-13T07:39:27.426Z,2.80
2022-09-13T07:42:30.681Z,3.40
2022-09-13T07:45:35.297Z,3.47
2022-09-13T07:48:40.918Z,3.45
2022-09-13T07:51:45.356Z,2.60
2022-09-13T07:54:48.808Z,3.28
2022-09-13T07:57:52.074Z,3.30
2022-09-13T08:00:58.926Z,2.78
2022-09-13T08:04:04.777Z,2.50
2022-09-13T08:07:07.987Z,2.50
2022-09-13T08:10:11.558Z,2.75
2022-09-13T08:13:16.722Z,3.00
2022-09-13T08:16:23.616Z,2.65
2022-09-13T08:19:27.235Z,2.33
2022-09-13T08:22:30.568Z,2.80
2022-09-13T08:25:34.900Z,2.40
2022-09-13T08:28:40.252Z,2.10
2022-09-13T08:31:45.242Z,2.28
2022-09-13T08:34:48.602Z,3.05
2022-09-13T08:37:51.857Z,2.30
2022-09-13T08:40:57.902Z,2.30
2022-09-13T08:44:06.971Z,2.00
2022-09-13T08:47:32.005Z,3.15
2022-09-13T08:50:37.427Z,2.20
2022-09-13T08:53:46.952Z,2.03
2022-09-13T08:56:58.113Z,2.38
2022-09-13T09:00:08.114Z,1.85
2022-09-13T09:03:24.308Z,2.13
2022-09-13T09:06:27.738Z,2.20
2022-09-13T09:09:35.638Z,2.13
2022-09-13T09:12:44.566Z,1.98
2022-09-13T09:15:50.192Z,2.35
2022-09-13T09:18:57.945Z,3.00
2022-09-13T09:22:04.977Z,2.25
2022-09-13T09:25:13.169Z,2.10
2022-09-13T09:28:18.543Z,2.10
2022-09-13T09:31:30.534Z,3.85
2022-09-13T09:34:48.625Z,2.38
2022-09-13T09:38:16.010Z,3.08
2022-09-13T09:41:27.993Z,2.30
2022-09-13T09:44:34.079Z,1.90
2022-09-13T09:47:45.754Z,3.00
2022-09-13T09:50:54.751Z,2.25
2022-09-13T09:54:05.273Z,2.20
2022-09-13T09:57:09.093Z,2.17
2022-09-13T10:00:14.649Z,2.80
2022-09-13T10:03:21.131Z,2.40
2022-09-13T10:06:28.419Z,1.90
2022-09-13T10:09:31.815Z,2.90
2022-09-13T10:12:38.215Z,1.88
2022-09-13T10:15:55.379Z,2.60
2022-09-13T10:19:25.445Z,2.00
2022-09-13T10:22:33.840Z,2.00
2022-09-13T10:25:38.004Z,2.10
2022-09-13T10:28:48.282Z,5.45
2022-09-13T10:31:55.387Z,4.55
2022-09-13T10:35:10.145Z,3.40
2022-09-13T10:38:25.985Z,2.30
2022-09-13T10:41:32.406Z,4.85
2022-09-13T10:45:05.920Z,4.63
2022-09-13T10:48:16.425Z,4.55
2022-09-13T10:51:32.602Z,2.20
2022-09-13T10:54:37.268Z,3.38
2022-09-13T10:57:40.501Z,2.25
2022-09-13T11:01:20.806Z,2.60
2022-09-13T11:05:06.526Z,2.30
2022-09-13T11:08:38.377Z,2.00
2022-09-13T11:11:53.964Z,2.15
2022-09-13T11:15:07.357Z,1.65
2022-09-13T11:18:54.109Z,1.48
2022-09-13T11:22:21.508Z,1.77
2022-09-13T11:25:37.773Z,1.73
2022-09-13T11:28:55.873Z,1.60
2022-09-13T11:32:11.277Z,1.70
2022-09-13T11:35:37.762Z,1.90
2022-09-13T11:38:57.301Z,1.50
2022-09-13T11:42:13.932Z,1.38
2022-09-13T11:45:24.362Z,1.63
2022-09-13T11:48:51.312Z,1.80
2022-09-13T11:52:07.865Z,1.55
2022-09-13T11:55:18.312Z,1.73
2022-09-13T11:58:27.022Z,1.67
2022-09-13T12:01:39.787Z,1.60
2022-09-13T12:05:18.077Z,1.80
2022-09-13T12:08:21.169Z,1.80
2022-09-13T12:11:28.486Z,1.80
2022-09-13T12:14:39.327Z,1.63
2022-09-13T12:17:47.016Z,1.65
2022-09-13T12:20:53.468Z,1.40
2022-09-13T12:24:02.525Z,1.42
2022-09-13T12:27:17.238Z,1.52
2022-09-13T12:30:24.774Z,1.30
2022-09-13T12:33:29.634Z,1.40
2022-09-13T12:36:51.262Z,1.27
2022-09-13T12:40:20.981Z,1.40
2022-09-13T12:44:30.513Z,1.20
2022-09-13T12:48:05.901Z,1.65
2022-09-13T12:51:23.189Z,1.23
2022-09-13T12:54:45.879Z,1.33
2022-09-13T12:57:56.407Z,1.60
2022-09-13T13:01:11.087Z,1.58
2022-09-13T13:04:17.745Z,1.55
2022-09-13T13:07:24.409Z,1.48
2022-09-13T13:10:31.150Z,1.70
2022-09-13T13:13:38.052Z,1.45
2022-09-13T13:16:41.641Z,1.60
2022-09-13T13:19:45.297Z,1.40
2022-09-13T13:22:52.769Z,1.40
2022-09-13T13:26:12.099Z,1.30
2022-09-13T13:29:20.763Z,1.27
2022-09-13T13:32:24.968Z,1.30
2022-09-13T13:35:32.511Z,1.30
2022-09-13T13:38:50.293Z,1.20
2022-09-13T13:41:57.736Z,1.30
2022-09-13T13:45:18.676Z,1.42
2022-09-13T13:48:38.293Z,1.23
2022-09-13T13:51:41.661Z,1.13
2022-09-13T13:55:04.508Z,1.30
2022-09-13T13:58:23.612Z,1.17
2022-09-13T14:01:29.953Z,1.38
2022-09-13T14:04:58.909Z,1.40
2022-09-13T14:08:27.770Z,1.20
2022-09-13T14:11:46.699Z,1.60
2022-09-13T14:15:07.563Z,1.30
2022-09-13T14:18:47.844Z,1.20
2022-09-13T14:22:14.048Z,1.40
2022-09-13T14:25:25.397Z,1.30
2022-09-13T14:28:30.301Z,1.48
2022-09-13T14:31:33.600Z,1.50
2022-09-13T14:34:39.452Z,1.50
2022-09-13T14:37:42.696Z,1.40
2022-09-13T14:40:49.969Z,1.40
2022-09-13T14:43:54.616Z,1.23
2022-09-13T14:47:13.382Z,1.75
2022-09-13T14:50:20.225Z,1.40
2022-09-13T14:53:26.830Z,1.88
2022-09-13T14:56:37.048Z,1.60
2022-09-13T14:59:46.632Z,1.90
2022-09-13T15:02:52.494Z,1.40
2022-09-13T15:05:58.258Z,1.67
2022-09-13T15:09:14.845Z,1.20
2022-09-13T15:12:25.947Z,1.63
2022-09-13T15:15:39.116Z,1.50
2022-09-13T15:18:42.441Z,1.60
2022-09-13T15:21:46.582Z,1.40
2022-09-13T15:24:52.709Z,1.50
2022-09-13T15:27:57.339Z,1.55
2022-09-13T15:31:03.510Z,1.40
2022-09-13T15:34:21.551Z,1.38
2022-09-13T15:37:35.408Z,1.10
2022-09-13T15:40:44.352Z,1.40
2022-09-13T15:43:49.744Z,15.77
2022-09-13T15:46:55.983Z,3.90
2022-09-13T15:49:59.780Z,8.43
2022-09-13T15:53:03.138Z,3.38
2022-09-13T15:56:07.720Z,2.00
2022-09-13T15:59:14.715Z,1.80
2022-09-13T16:02:22.714Z,1.45
2022-09-13T16:05:26.131Z,1.70
2022-09-13T16:08:29.321Z,1.60
2022-09-13T16:11:32.600Z,1.48
2022-09-13T16:14:35.838Z,1.95
2022-09-13T16:17:41.010Z,1.55
2022-09-13T16:20:44.284Z,1.65
2022-09-13T16:23:47.484Z,2.10
2022-09-13T16:26:50.711Z,1.88
2022-09-13T16:29:54.510Z,2.05
2022-09-13T16:32:59.079Z,2.67
2022-09-13T16:36:02.669Z,2.60
2022-09-13T16:39:06.402Z,3.00
2022-09-13T16:42:09.634Z,2.45
2022-09-13T16:45:13.952Z,2.42
2022-09-13T16:48:18.791Z,3.72
2022-09-13T16:51:22.078Z,6.68
2022-09-13T16:54:25.271Z,5.82
2022-09-13T16:57:28.448Z,5.18
2022-09-13T17:00:31.700Z,5.07
2022-09-13T17:03:36.987Z,4.18
2022-09-13T17:06:40.461Z,2.85
2022-09-13T17:09:43.699Z,3.70
2022-09-13T17:12:47.132Z,3.70
2022-09-13T17:15:53.711Z,3.45
2022-09-13T17:19:10.140Z,4.20
2022-09-13T17:22:13.760Z,3.97
2022-09-13T17:25:17.105Z,3.72
2022-09-13T17:28:21.682Z,2.75
2022-09-13T17:31:25.376Z,2.55
2022-09-13T17:34:30.787Z,2.28
2022-09-13T17:37:34.035Z,2.55
2022-09-13T17:40:37.305Z,3.08
2022-09-13T17:43:41.897Z,3.10
2022-09-13T17:46:45.223Z,3.20
2022-09-13T17:49:49.928Z,3.25
2022-09-13T17:52:53.163Z,3.90
2022-09-13T17:55:56.351Z,3.40
2022-09-13T17:59:09.815Z,3.80
2022-09-13T18:02:13.565Z,3.42
2022-09-13T18:05:18.277Z,3.05
2022-09-13T18:08:21.523Z,3.45
2022-09-13T18:11:24.736Z,3.00
2022-09-13T18:14:27.971Z,3.53
2022-09-13T18:17:31.199Z,3.28
2022-09-13T18:20:40.395Z,3.88
2022-09-13T18:23:43.880Z,5.43
2022-09-13T18:26:47.382Z,3.58
2022-09-13T18:29:50.615Z,3.28
2022-09-13T18:32:53.892Z,2.78
2022-09-13T18:36:03.821Z,3.00
2022-09-13T18:39:08.801Z,2.38
2022-09-13T18:42:12.190Z,2.80
2022-09-13T18:45:15.674Z,2.47
2022-09-13T18:48:18.851Z,2.75
2022-09-13T18:51:25.493Z,2.75
2022-09-13T18:54:28.719Z,2.10
2022-09-13T18:57:31.966Z,2.45
2022-09-13T19:00:35.216Z,2.80
2022-09-13T19:03:38.900Z,2.70
2022-09-13T19:06:44.648Z,2.75
2022-09-13T19:09:53.863Z,2.58
2022-09-13T19:12:57.163Z,3.03
2022-09-13T19:16:00.545Z,2.35
2022-09-13T19:19:04.067Z,2.72
2022-09-13T19:22:08.728Z,2.78
2022-09-13T19:25:18.002Z,2.25
2022-09-13T19:28:21.282Z,2.05
2022-09-13T19:31:26.388Z,2.53
2022-09-13T19:34:29.638Z,2.30
2022-09-13T19:37:34.268Z,2.22
2022-09-13T19:40:38.888Z,2.20
2022-09-13T19:43:44.607Z,2.20
2022-09-13T19:46:48.252Z,2.70
2022-09-13T19:49:51.470Z,2.35
2022-09-13T19:52:56.087Z,2.60
2022-09-13T19:55:59.535Z,2.83
2022-09-13T19:59:03.680Z,2.15
2022-09-13T20:02:07.110Z,2.38
2022-09-13T20:05:10.753Z,2.40
2022-09-13T20:08:15.704Z,2.25
2022-09-13T20:11:19.672Z,2.08
2022-09-13T20:14:23.299Z,2.30
2022-09-13T20:17:26.697Z,2.15
2022-09-13T20:20:30.168Z,2.33
2022-09-13T20:23:35.266Z,2.15
2022-09-13T20:26:38.645Z,1.73
2022-09-13T20:29:42.538Z,2.35
2022-09-13T20:32:47.952Z,2.35
2022-09-13T20:35:52.162Z,2.45
2022-09-13T20:39:02.349Z,2.38
2022-09-13T20:42:06.853Z,1.98
2022-09-13T20:45:11.314Z,2.00
2022-09-13T20:48:14.481Z,2.47
2022-09-13T20:51:19.481Z,2.45
2022-09-13T20:54:24.155Z,2.00
2022-09-13T20:57:27.419Z,2.25
2022-09-13T21:00:30.663Z,2.40
2022-09-13T21:03:36.864Z,2.63
2022-09-13T21:07:02.623Z,2.47
2022-09-13T21:10:07.245Z,2.95
2022-09-13T21:13:10.500Z,2.70
2022-09-13T21:16:15.597Z,3.17
2022-09-13T21:19:18.898Z,2.42
2022-09-13T21:22:22.160Z,2.50
2022-09-13T21:25:26.890Z,2.38
2022-09-13T21:28:30.599Z,2.05
2022-09-13T21:31:35.567Z,2.38
2022-09-13T21:34:38.984Z,2.30
2022-09-13T21:37:42.642Z,2.33
2022-09-13T21:40:55.158Z,2.40
2022-09-13T21:43:58.631Z,2.50
2022-09-13T21:47:01.861Z,2.57
2022-09-13T21:50:05.458Z,3.10
2022-09-13T21:53:08.899Z,3.28
2022-09-13T21:56:18.578Z,2.10
2022-09-13T21:59:23.263Z,2.20
2022-09-13T22:02:34.061Z,2.42
2022-09-13T22:05:44.844Z,2.60
2022-09-13T22:09:01.153Z,2.23
2022-09-13T22:12:34.903Z,2.80
2022-09-13T22:15:54.261Z,2.57
2022-09-13T22:19:26.778Z,2.50
2022-09-13T22:22:32.287Z,2.83
2022-09-13T22:25:45.738Z,2.90
2022-09-13T22:28:56.300Z,2.67
2022-09-13T22:32:07.517Z,2.43
2022-09-13T22:35:15.771Z,2.60
2022-09-13T22:38:24.303Z,2.80
2022-09-13T22:41:30.228Z,2.90
2022-09-13T22:44:35.348Z,2.42
2022-09-13T22:47:44.564Z,2.60
2022-09-13T22:50:52.352Z,2.57
2022-09-13T22:53:56.302Z,2.50
2022-09-13T22:57:00.485Z,2.77
2022-09-13T23:00:05.784Z,2.73
2022-09-13T23:03:09.383Z,2.70
2022-09-13T23:06:14.059Z,2.70
2022-09-13T23:09:19.502Z,2.87
2022-09-13T23:12:22.752Z,2.43
2022-09-13T23:15:27.595Z,2.90
2022-09-13T23:18:32.575Z,2.60
2022-09-13T23:21:38.799Z,2.70
2022-09-13T23:24:42.020Z,2.77
2022-09-13T23:27:45.352Z,2.33
2022-09-13T23:30:50.011Z,3.30
2022-09-13T23:34:01.713Z,2.70
2022-09-13T23:37:05.001Z,2.70
2022-09-13T23:40:09.075Z,2.20
2022-09-13T23:43:12.309Z,2.40
2022-09-13T23:46:17.748Z,2.70
2022-09-13T23:49:20.963Z,2.87
2022-09-13T23:52:24.209Z,2.63
2022-09-13T23:55:27.464Z,2.70
2022-09-13T23:58:31.406Z,2.50
